sensor_id;sensor_type;location;lat;lon;timestamp;P1;durP1;ratioP1;P2;durP2;ratioP2
53022;SDS011;38913;44.338;11.206;2023-02-15T00:01:27;40.58;;;36.47;;
53022;SDS011;38913;44.338;11.206;2023-02-15T00:03:52;43.42;;;39.10;;
53022;SDS011;38913;44.338;11.206;2023-02-15T00:06:18;47.45;;;42.80;;
53022;SDS011;38913;44.338;11.206;2023-02-15T00:08:43;49.42;;;45.22;;
53022;SDS011;38913;44.338;11.206;2023-02-15T00:11:09;47.60;;;43.22;;
53022;SDS011;38913;44.338;11.206;2023-02-15T00:13:35;60.28;;;55.17;;
53022;SDS011;38913;44.338;11.206;2023-02-15T00:16:05;46.88;;;42.10;;
53022;SDS011;38913;44.338;11.206;2023-02-15T00:18:30;50.70;;;46.20;;
53022;SDS011;38913;44.338;11.206;2023-02-15T00:20:55;49.80;;;44.75;;
53022;SDS011;38913;44.338;11.206;2023-02-15T00:23:21;35.50;;;29.23;;
53022;SDS011;38913;44.338;11.206;2023-02-15T00:25:46;40.72;;;36.33;;
53022;SDS011;38913;44.338;11.206;2023-02-15T00:28:11;44.45;;;39.97;;
53022;SDS011;38913;44.338;11.206;2023-02-15T00:30:37;45.13;;;40.60;;
53022;SDS011;38913;44.338;11.206;2023-02-15T00:33:02;41.13;;;35.80;;
53022;SDS011;38913;44.338;11.206;2023-02-15T00:35:27;66.88;;;61.22;;
53022;SDS011;38913;44.338;11.206;2023-02-15T00:37:52;42.58;;;36.85;;
53022;SDS011;38913;44.338;11.206;2023-02-15T00:40:18;58.53;;;53.07;;
53022;SDS011;38913;44.338;11.206;2023-02-15T00:42:43;46.70;;;42.08;;
53022;SDS011;38913;44.338;11.206;2023-02-15T00:45:09;45.80;;;41.50;;
53022;SDS011;38913;44.338;11.206;2023-02-15T00:47:34;49.75;;;45.60;;
53022;SDS011;38913;44.338;11.206;2023-02-15T00:49:59;56.17;;;51.70;;
53022;SDS011;38913;44.338;11.206;2023-02-15T00:52:24;48.10;;;43.80;;
53022;SDS011;38913;44.338;11.206;2023-02-15T00:54:50;76.60;;;71.17;;
53022;SDS011;38913;44.338;11.206;2023-02-15T00:57:15;60.17;;;55.13;;
53022;SDS011;38913;44.338;11.206;2023-02-15T00:59:40;65.37;;;60.50;;
53022;SDS011;38913;44.338;11.206;2023-02-15T01:02:05;58.53;;;53.87;;
53022;SDS011;38913;44.338;11.206;2023-02-15T01:04:31;38.03;;;34.22;;
53022;SDS011;38913;44.338;11.206;2023-02-15T01:06:56;52.03;;;47.97;;
53022;SDS011;38913;44.338;11.206;2023-02-15T01:09:21;38.75;;;35.17;;
53022;SDS011;38913;44.338;11.206;2023-02-15T01:11:47;38.88;;;35.53;;
53022;SDS011;38913;44.338;11.206;2023-02-15T01:14:12;32.40;;;28.88;;
53022;SDS011;38913;44.338;11.206;2023-02-15T01:16:38;40.47;;;36.92;;
53022;SDS011;38913;44.338;11.206;2023-02-15T01:19:03;34.75;;;30.48;;
53022;SDS011;38913;44.338;11.206;2023-02-15T01:21:28;35.35;;;29.15;;
53022;SDS011;38913;44.338;11.206;2023-02-15T01:23:54;36.78;;;33.10;;
53022;SDS011;38913;44.338;11.206;2023-02-15T01:26:19;30.25;;;26.63;;
53022;SDS011;38913;44.338;11.206;2023-02-15T01:28:44;41.78;;;37.95;;
53022;SDS011;38913;44.338;11.206;2023-02-15T01:31:11;40.05;;;35.95;;
53022;SDS011;38913;44.338;11.206;2023-02-15T01:33:37;41.80;;;38.17;;
53022;SDS011;38913;44.338;11.206;2023-02-15T01:36:02;36.83;;;32.92;;
53022;SDS011;38913;44.338;11.206;2023-02-15T01:38:28;37.33;;;33.70;;
53022;SDS011;38913;44.338;11.206;2023-02-15T01:40:53;38.10;;;34.20;;
53022;SDS011;38913;44.338;11.206;2023-02-15T01:43:19;39.08;;;35.15;;
53022;SDS011;38913;44.338;11.206;2023-02-15T01:45:45;40.33;;;36.53;;
53022;SDS011;38913;44.338;11.206;2023-02-15T01:50:38;36.30;;;32.50;;
53022;SDS011;38913;44.338;11.206;2023-02-15T01:53:07;29.55;;;23.65;;
53022;SDS011;38913;44.338;11.206;2023-02-15T01:55:35;32.42;;;29.20;;
53022;SDS011;38913;44.338;11.206;2023-02-15T01:58:01;29.55;;;26.38;;
53022;SDS011;38913;44.338;11.206;2023-02-15T02:00:27;34.22;;;31.08;;
53022;SDS011;38913;44.338;11.206;2023-02-15T02:02:53;27.65;;;24.35;;
53022;SDS011;38913;44.338;11.206;2023-02-15T02:05:19;29.45;;;22.70;;
53022;SDS011;38913;44.338;11.206;2023-02-15T02:07:45;34.28;;;31.08;;
53022;SDS011;38913;44.338;11.206;2023-02-15T02:10:20;43.83;;;40.33;;
53022;SDS011;38913;44.338;11.206;2023-02-15T02:12:46;48.60;;;44.55;;
53022;SDS011;38913;44.338;11.206;2023-02-15T02:15:12;44.03;;;40.53;;
53022;SDS011;38913;44.338;11.206;2023-02-15T02:18:03;38.75;;;34.90;;
53022;SDS011;38913;44.338;11.206;2023-02-15T02:41:24;37.97;;;34.33;;
53022;SDS011;38913;44.338;11.206;2023-02-15T02:44:02;49.42;;;45.63;;
53022;SDS011;38913;44.338;11.206;2023-02-15T02:46:35;56.08;;;52.20;;
53022;SDS011;38913;44.338;11.206;2023-02-15T02:49:01;45.85;;;42.03;;
53022;SDS011;38913;44.338;11.206;2023-02-15T02:51:27;50.23;;;46.37;;
53022;SDS011;38913;44.338;11.206;2023-02-15T02:53:53;37.17;;;33.80;;
53022;SDS011;38913;44.338;11.206;2023-02-15T02:59:02;31.45;;;28.33;;
53022;SDS011;38913;44.338;11.206;2023-02-15T03:03:56;54.45;;;50.30;;
53022;SDS011;38913;44.338;11.206;2023-02-15T03:06:25;40.50;;;36.90;;
53022;SDS011;38913;44.338;11.206;2023-02-15T03:08:54;38.10;;;34.58;;
53022;SDS011;38913;44.338;11.206;2023-02-15T03:11:23;42.55;;;38.70;;
53022;SDS011;38913;44.338;11.206;2023-02-15T03:13:48;37.70;;;34.30;;
53022;SDS011;38913;44.338;11.206;2023-02-15T03:16:14;29.85;;;26.63;;
53022;SDS011;38913;44.338;11.206;2023-02-15T03:19:04;23.20;;;20.73;;
53022;SDS011;38913;44.338;11.206;2023-02-15T03:21:32;25.98;;;23.48;;
53022;SDS011;38913;44.338;11.206;2023-02-15T03:24:01;35.72;;;32.72;;
53022;SDS011;38913;44.338;11.206;2023-02-15T03:26:30;47.67;;;43.70;;
53022;SDS011;38913;44.338;11.206;2023-02-15T03:28:57;26.17;;;23.73;;
53022;SDS011;38913;44.338;11.206;2023-02-15T03:31:23;31.63;;;28.60;;
53022;SDS011;38913;44.338;11.206;2023-02-15T03:33:52;38.33;;;34.75;;
53022;SDS011;38913;44.338;11.206;2023-02-15T03:36:20;28.58;;;25.92;;
53022;SDS011;38913;44.338;11.206;2023-02-15T03:38:50;30.58;;;27.58;;
53022;SDS011;38913;44.338;11.206;2023-02-15T03:41:17;40.28;;;36.83;;
53022;SDS011;38913;44.338;11.206;2023-02-15T03:43:54;38.00;;;34.83;;
53022;SDS011;38913;44.338;11.206;2023-02-15T03:46:32;33.42;;;30.52;;
53022;SDS011;38913;44.338;11.206;2023-02-15T03:49:08;31.13;;;28.23;;
53022;SDS011;38913;44.338;11.206;2023-02-15T03:51:35;39.17;;;35.67;;
53022;SDS011;38913;44.338;11.206;2023-02-15T03:56:28;29.38;;;26.48;;
53022;SDS011;38913;44.338;11.206;2023-02-15T03:58:53;34.83;;;31.70;;
53022;SDS011;38913;44.338;11.206;2023-02-15T04:01:38;30.80;;;27.92;;
53022;SDS011;38913;44.338;11.206;2023-02-15T04:04:23;35.00;;;31.77;;
53022;SDS011;38913;44.338;11.206;2023-02-15T04:06:49;36.47;;;33.55;;
53022;SDS011;38913;44.338;11.206;2023-02-15T04:09:15;38.88;;;35.40;;
53022;SDS011;38913;44.338;11.206;2023-02-15T04:11:58;38.78;;;35.33;;
53022;SDS011;38913;44.338;11.206;2023-02-15T04:14:24;35.95;;;33.08;;
53022;SDS011;38913;44.338;11.206;2023-02-15T04:17:07;40.95;;;37.90;;
53022;SDS011;38913;44.338;11.206;2023-02-15T04:19:33;34.78;;;31.95;;
53022;SDS011;38913;44.338;11.206;2023-02-15T04:22:17;39.15;;;35.72;;
53022;SDS011;38913;44.338;11.206;2023-02-15T04:25:00;33.65;;;30.73;;
53022;SDS011;38913;44.338;11.206;2023-02-15T04:27:39;44.28;;;41.05;;
53022;SDS011;38913;44.338;11.206;2023-02-15T04:30:04;31.65;;;28.83;;
53022;SDS011;38913;44.338;11.206;2023-02-15T04:32:30;37.92;;;34.83;;
53022;SDS011;38913;44.338;11.206;2023-02-15T04:34:55;46.80;;;43.33;;
53022;SDS011;38913;44.338;11.206;2023-02-15T04:37:20;31.35;;;28.45;;
53022;SDS011;38913;44.338;11.206;2023-02-15T04:39:46;27.73;;;24.80;;
53022;SDS011;38913;44.338;11.206;2023-02-15T04:42:11;25.87;;;23.17;;
53022;SDS011;38913;44.338;11.206;2023-02-15T04:44:36;32.17;;;29.08;;
53022;SDS011;38913;44.338;11.206;2023-02-15T04:47:01;30.83;;;27.60;;
53022;SDS011;38913;44.338;11.206;2023-02-15T04:49:27;36.63;;;33.42;;
53022;SDS011;38913;44.338;11.206;2023-02-15T04:51:52;38.77;;;35.77;;
53022;SDS011;38913;44.338;11.206;2023-02-15T04:54:17;35.07;;;32.53;;
53022;SDS011;38913;44.338;11.206;2023-02-15T04:56:42;41.77;;;38.43;;
53022;SDS011;38913;44.338;11.206;2023-02-15T04:59:10;41.03;;;37.88;;
53022;SDS011;38913;44.338;11.206;2023-02-15T05:01:36;37.42;;;34.58;;
53022;SDS011;38913;44.338;11.206;2023-02-15T05:04:02;37.58;;;34.58;;
53022;SDS011;38913;44.338;11.206;2023-02-15T05:06:27;71.65;;;67.18;;
53022;SDS011;38913;44.338;11.206;2023-02-15T05:08:52;72.57;;;68.15;;
53022;SDS011;38913;44.338;11.206;2023-02-15T05:11:18;68.95;;;64.60;;
53022;SDS011;38913;44.338;11.206;2023-02-15T05:13:43;47.88;;;44.55;;
53022;SDS011;38913;44.338;11.206;2023-02-15T05:16:08;42.37;;;39.20;;
53022;SDS011;38913;44.338;11.206;2023-02-15T05:18:33;42.58;;;39.42;;
53022;SDS011;38913;44.338;11.206;2023-02-15T05:20:59;37.85;;;35.15;;
53022;SDS011;38913;44.338;11.206;2023-02-15T05:23:24;48.20;;;44.72;;
53022;SDS011;38913;44.338;11.206;2023-02-15T05:25:50;32.75;;;30.23;;
53022;SDS011;38913;44.338;11.206;2023-02-15T05:28:34;31.75;;;28.67;;
53022;SDS011;38913;44.338;11.206;2023-02-15T05:31:07;28.73;;;26.48;;
53022;SDS011;38913;44.338;11.206;2023-02-15T05:33:33;53.78;;;49.88;;
53022;SDS011;38913;44.338;11.206;2023-02-15T05:35:58;66.20;;;61.97;;
53022;SDS011;38913;44.338;11.206;2023-02-15T05:38:24;34.70;;;31.77;;
53022;SDS011;38913;44.338;11.206;2023-02-15T05:40:50;60.05;;;55.60;;
53022;SDS011;38913;44.338;11.206;2023-02-15T05:43:15;32.25;;;29.27;;
53022;SDS011;38913;44.338;11.206;2023-02-15T05:45:43;28.17;;;25.65;;
53022;SDS011;38913;44.338;11.206;2023-02-15T05:48:09;31.60;;;28.85;;
53022;SDS011;38913;44.338;11.206;2023-02-15T05:50:34;27.93;;;25.57;;
53022;SDS011;38913;44.338;11.206;2023-02-15T05:53:00;31.48;;;28.85;;
53022;SDS011;38913;44.338;11.206;2023-02-15T05:55:25;24.27;;;21.98;;
53022;SDS011;38913;44.338;11.206;2023-02-15T05:57:50;33.97;;;31.27;;
53022;SDS011;38913;44.338;11.206;2023-02-15T06:00:15;32.83;;;30.27;;
53022;SDS011;38913;44.338;11.206;2023-02-15T06:02:41;31.50;;;28.55;;
53022;SDS011;38913;44.338;11.206;2023-02-15T06:05:06;37.80;;;35.17;;
53022;SDS011;38913;44.338;11.206;2023-02-15T06:07:32;35.80;;;33.35;;
53022;SDS011;38913;44.338;11.206;2023-02-15T06:09:57;35.03;;;32.25;;
53022;SDS011;38913;44.338;11.206;2023-02-15T06:12:22;37.13;;;34.30;;
53022;SDS011;38913;44.338;11.206;2023-02-15T06:14:48;39.95;;;37.25;;
53022;SDS011;38913;44.338;11.206;2023-02-15T06:17:13;42.27;;;39.40;;
53022;SDS011;38913;44.338;11.206;2023-02-15T06:19:38;48.05;;;44.80;;
53022;SDS011;38913;44.338;11.206;2023-02-15T06:22:03;42.90;;;39.70;;
53022;SDS011;38913;44.338;11.206;2023-02-15T06:24:28;34.43;;;31.93;;
53022;SDS011;38913;44.338;11.206;2023-02-15T06:26:54;47.90;;;44.92;;
53022;SDS011;38913;44.338;11.206;2023-02-15T06:29:19;42.60;;;39.90;;
53022;SDS011;38913;44.338;11.206;2023-02-15T06:31:44;72.27;;;67.60;;
53022;SDS011;38913;44.338;11.206;2023-02-15T06:34:09;39.40;;;36.92;;
53022;SDS011;38913;44.338;11.206;2023-02-15T06:36:35;60.40;;;56.95;;
53022;SDS011;38913;44.338;11.206;2023-02-15T06:39:00;98.32;;;92.93;;
53022;SDS011;38913;44.338;11.206;2023-02-15T06:41:27;101.30;;;95.20;;
53022;SDS011;38913;44.338;11.206;2023-02-15T06:43:52;88.38;;;83.03;;
53022;SDS011;38913;44.338;11.206;2023-02-15T06:46:17;39.40;;;36.08;;
53022;SDS011;38913;44.338;11.206;2023-02-15T06:48:42;31.70;;;29.55;;
53022;SDS011;38913;44.338;11.206;2023-02-15T06:51:08;29.40;;;27.23;;
53022;SDS011;38913;44.338;11.206;2023-02-15T06:53:33;34.17;;;31.60;;
53022;SDS011;38913;44.338;11.206;2023-02-15T06:56:05;39.75;;;36.75;;
53022;SDS011;38913;44.338;11.206;2023-02-15T06:58:37;37.08;;;34.72;;
53022;SDS011;38913;44.338;11.206;2023-02-15T07:01:02;67.13;;;62.55;;
53022;SDS011;38913;44.338;11.206;2023-02-15T07:03:28;31.80;;;29.48;;
53022;SDS011;38913;44.338;11.206;2023-02-15T07:05:54;46.95;;;43.95;;
53022;SDS011;38913;44.338;11.206;2023-02-15T07:08:19;32.70;;;29.45;;
53022;SDS011;38913;44.338;11.206;2023-02-15T07:10:45;29.27;;;26.75;;
53022;SDS011;38913;44.338;11.206;2023-02-15T07:13:10;36.42;;;32.78;;
53022;SDS011;38913;44.338;11.206;2023-02-15T07:15:35;28.80;;;26.42;;
53022;SDS011;38913;44.338;11.206;2023-02-15T07:18:01;35.80;;;32.55;;
53022;SDS011;38913;44.338;11.206;2023-02-15T07:20:26;34.22;;;31.13;;
53022;SDS011;38913;44.338;11.206;2023-02-15T07:22:53;64.53;;;60.70;;
53022;SDS011;38913;44.338;11.206;2023-02-15T07:25:21;28.80;;;26.70;;
53022;SDS011;38913;44.338;11.206;2023-02-15T07:27:50;28.80;;;26.67;;
53022;SDS011;38913;44.338;11.206;2023-02-15T07:30:19;35.40;;;33.28;;
53022;SDS011;38913;44.338;11.206;2023-02-15T07:32:45;56.55;;;53.40;;
53022;SDS011;38913;44.338;11.206;2023-02-15T07:35:29;53.53;;;50.83;;
53022;SDS011;38913;44.338;11.206;2023-02-15T07:37:54;43.90;;;41.22;;
53022;SDS011;38913;44.338;11.206;2023-02-15T07:40:19;42.13;;;39.60;;
53022;SDS011;38913;44.338;11.206;2023-02-15T07:42:48;35.97;;;33.70;;
53022;SDS011;38913;44.338;11.206;2023-02-15T07:45:13;38.37;;;36.20;;
53022;SDS011;38913;44.338;11.206;2023-02-15T07:47:38;47.73;;;45.23;;
53022;SDS011;38913;44.338;11.206;2023-02-15T07:50:04;36.53;;;34.23;;
53022;SDS011;38913;44.338;11.206;2023-02-15T07:52:29;58.60;;;55.15;;
53022;SDS011;38913;44.338;11.206;2023-02-15T07:54:54;74.20;;;69.87;;
53022;SDS011;38913;44.338;11.206;2023-02-15T07:57:20;78.93;;;75.05;;
53022;SDS011;38913;44.338;11.206;2023-02-15T07:59:45;71.07;;;67.57;;
53022;SDS011;38913;44.338;11.206;2023-02-15T08:02:10;61.70;;;58.40;;
53022;SDS011;38913;44.338;11.206;2023-02-15T08:04:35;60.13;;;57.03;;
53022;SDS011;38913;44.338;11.206;2023-02-15T08:07:01;68.53;;;65.10;;
53022;SDS011;38913;44.338;11.206;2023-02-15T08:09:26;46.60;;;43.93;;
53022;SDS011;38913;44.338;11.206;2023-02-15T08:11:51;64.37;;;61.20;;
53022;SDS011;38913;44.338;11.206;2023-02-15T08:16:45;57.83;;;54.93;;
53022;SDS011;38913;44.338;11.206;2023-02-15T08:19:16;59.42;;;56.47;;
53022;SDS011;38913;44.338;11.206;2023-02-15T08:21:43;58.22;;;55.20;;
53022;SDS011;38913;44.338;11.206;2023-02-15T08:24:09;59.28;;;56.17;;
53022;SDS011;38913;44.338;11.206;2023-02-15T08:26:35;81.53;;;77.38;;
53022;SDS011;38913;44.338;11.206;2023-02-15T08:29:01;63.92;;;60.63;;
53022;SDS011;38913;44.338;11.206;2023-02-15T08:31:27;77.68;;;73.97;;
53022;SDS011;38913;44.338;11.206;2023-02-15T08:33:53;78.75;;;74.80;;
53022;SDS011;38913;44.338;11.206;2023-02-15T08:36:20;57.92;;;55.10;;
53022;SDS011;38913;44.338;11.206;2023-02-15T08:38:45;63.53;;;60.17;;
53022;SDS011;38913;44.338;11.206;2023-02-15T08:43:46;62.63;;;59.47;;
53022;SDS011;38913;44.338;11.206;2023-02-15T08:46:12;87.95;;;83.65;;
53022;SDS011;38913;44.338;11.206;2023-02-15T08:48:38;45.33;;;43.00;;
53022;SDS011;38913;44.338;11.206;2023-02-15T08:51:04;43.45;;;41.28;;
53022;SDS011;38913;44.338;11.206;2023-02-15T08:53:30;56.90;;;54.20;;
53022;SDS011;38913;44.338;11.206;2023-02-15T08:55:55;39.87;;;37.80;;
53022;SDS011;38913;44.338;11.206;2023-02-15T08:58:21;43.28;;;40.80;;
53022;SDS011;38913;44.338;11.206;2023-02-15T09:00:47;66.73;;;63.57;;
53022;SDS011;38913;44.338;11.206;2023-02-15T09:03:12;41.10;;;39.00;;
53022;SDS011;38913;44.338;11.206;2023-02-15T09:05:37;35.05;;;33.15;;
53022;SDS011;38913;44.338;11.206;2023-02-15T09:08:02;38.78;;;36.78;;
53022;SDS011;38913;44.338;11.206;2023-02-15T09:10:28;52.35;;;49.90;;
53022;SDS011;38913;44.338;11.206;2023-02-15T09:12:53;44.20;;;42.00;;
53022;SDS011;38913;44.338;11.206;2023-02-15T09:15:18;48.20;;;45.87;;
53022;SDS011;38913;44.338;11.206;2023-02-15T09:17:43;59.88;;;57.10;;
53022;SDS011;38913;44.338;11.206;2023-02-15T09:20:09;39.35;;;37.38;;
53022;SDS011;38913;44.338;11.206;2023-02-15T09:22:34;27.08;;;25.55;;
53022;SDS011;38913;44.338;11.206;2023-02-15T09:24:59;35.57;;;33.60;;
53022;SDS011;38913;44.338;11.206;2023-02-15T09:27:25;32.28;;;30.52;;
53022;SDS011;38913;44.338;11.206;2023-02-15T09:29:50;33.17;;;31.37;;
53022;SDS011;38913;44.338;11.206;2023-02-15T09:32:15;41.83;;;39.80;;
53022;SDS011;38913;44.338;11.206;2023-02-15T09:34:42;37.78;;;35.95;;
53022;SDS011;38913;44.338;11.206;2023-02-15T09:37:07;58.60;;;55.80;;
53022;SDS011;38913;44.338;11.206;2023-02-15T09:39:32;56.43;;;53.77;;
53022;SDS011;38913;44.338;11.206;2023-02-15T09:55:28;32.38;;;30.70;;
53022;SDS011;38913;44.338;11.206;2023-02-15T09:58:11;25.60;;;24.05;;
53022;SDS011;38913;44.338;11.206;2023-02-15T10:03:15;50.03;;;47.70;;
53022;SDS011;38913;44.338;11.206;2023-02-15T10:08:27;55.42;;;52.72;;
53022;SDS011;38913;44.338;11.206;2023-02-15T10:13:48;54.65;;;52.00;;
53022;SDS011;38913;44.338;11.206;2023-02-15T10:18:51;64.95;;;61.83;;
53022;SDS011;38913;44.338;11.206;2023-02-15T10:26:49;82.88;;;78.97;;
53022;SDS011;38913;44.338;11.206;2023-02-15T10:31:48;69.47;;;66.18;;
53022;SDS011;38913;44.338;11.206;2023-02-15T10:34:23;155.80;;;147.90;;
53022;SDS011;38913;44.338;11.206;2023-02-15T10:47:36;123.00;;;116.90;;
53022;SDS011;38913;44.338;11.206;2023-02-15T10:49:45;154.90;;;146.85;;
53022;SDS011;38913;44.338;11.206;2023-02-15T10:54:40;232.77;;;220.60;;
53022;SDS011;38913;44.338;11.206;2023-02-15T11:04:58;383.48;;;362.13;;
53022;SDS011;38913;44.338;11.206;2023-02-15T11:07:29;443.55;;;418.23;;
53022;SDS011;38913;44.338;11.206;2023-02-15T11:12:37;381.98;;;360.42;;
53022;SDS011;38913;44.338;11.206;2023-02-15T11:15:17;364.95;;;344.27;;
53022;SDS011;38913;44.338;11.206;2023-02-15T11:17:45;369.17;;;347.92;;
53022;SDS011;38913;44.338;11.206;2023-02-15T11:22:47;364.40;;;343.48;;
53022;SDS011;38913;44.338;11.206;2023-02-15T11:25:22;412.52;;;388.13;;
53022;SDS011;38913;44.338;11.206;2023-02-15T11:27:48;376.55;;;354.55;;
53022;SDS011;38913;44.338;11.206;2023-02-15T11:30:15;365.98;;;344.05;;
53022;SDS011;38913;44.338;11.206;2023-02-15T11:32:45;361.55;;;340.25;;
53022;SDS011;38913;44.338;11.206;2023-02-15T11:37:39;329.85;;;310.42;;
53022;SDS011;38913;44.338;11.206;2023-02-15T11:40:12;310.60;;;292.20;;
53022;SDS011;38913;44.338;11.206;2023-02-15T11:42:40;316.33;;;297.48;;
53022;SDS011;38913;44.338;11.206;2023-02-15T11:47:41;351.45;;;329.77;;
53022;SDS011;38913;44.338;11.206;2023-02-15T11:50:11;398.03;;;373.03;;
53022;SDS011;38913;44.338;11.206;2023-02-15T11:52:36;410.42;;;384.92;;
53022;SDS011;38913;44.338;11.206;2023-02-15T11:55:01;310.07;;;291.07;;
53022;SDS011;38913;44.338;11.206;2023-02-15T11:58:01;264.20;;;247.90;;
53022;SDS011;38913;44.338;11.206;2023-02-15T12:00:31;247.77;;;232.45;;
53022;SDS011;38913;44.338;11.206;2023-02-15T12:03:01;228.75;;;214.35;;
53022;SDS011;38913;44.338;11.206;2023-02-15T12:05:27;193.27;;;180.80;;
53022;SDS011;38913;44.338;11.206;2023-02-15T12:07:54;188.57;;;176.35;;
53022;SDS011;38913;44.338;11.206;2023-02-15T12:10:25;193.02;;;180.52;;
53022;SDS011;38913;44.338;11.206;2023-02-15T12:13:13;146.50;;;136.25;;
53022;SDS011;38913;44.338;11.206;2023-02-15T12:15:44;149.05;;;138.98;;
53022;SDS011;38913;44.338;11.206;2023-02-15T12:20:44;160.07;;;149.20;;
53022;SDS011;38913;44.338;11.206;2023-02-15T12:23:13;149.48;;;139.65;;
53022;SDS011;38913;44.338;11.206;2023-02-15T12:26:00;144.68;;;135.38;;
53022;SDS011;38913;44.338;11.206;2023-02-15T12:28:40;142.00;;;131.98;;
53022;SDS011;38913;44.338;11.206;2023-02-15T12:31:39;152.38;;;142.68;;
53022;SDS011;38913;44.338;11.206;2023-02-15T12:33:57;144.45;;;135.02;;
53022;SDS011;38913;44.338;11.206;2023-02-15T12:36:30;145.73;;;136.40;;
53022;SDS011;38913;44.338;11.206;2023-02-15T12:41:28;150.93;;;140.95;;
53022;SDS011;38913;44.338;11.206;2023-02-15T12:44:04;166.27;;;154.93;;
53022;SDS011;38913;44.338;11.206;2023-02-15T12:46:29;173.38;;;162.60;;
53022;SDS011;38913;44.338;11.206;2023-02-15T12:49:05;155.27;;;145.63;;
53022;SDS011;38913;44.338;11.206;2023-02-15T12:51:41;163.52;;;152.98;;
53022;SDS011;38913;44.338;11.206;2023-02-15T12:56:51;171.43;;;160.35;;
53022;SDS011;38913;44.338;11.206;2023-02-15T12:59:16;140.37;;;131.10;;
53022;SDS011;38913;44.338;11.206;2023-02-15T13:01:45;130.95;;;122.13;;
53022;SDS011;38913;44.338;11.206;2023-02-15T13:04:26;149.35;;;139.65;;
53022;SDS011;38913;44.338;11.206;2023-02-15T13:06:54;139.20;;;130.02;;
53022;SDS011;38913;44.338;11.206;2023-02-15T13:09:52;160.40;;;150.70;;
53022;SDS011;38913;44.338;11.206;2023-02-15T13:12:16;123.50;;;115.68;;
53022;SDS011;38913;44.338;11.206;2023-02-15T13:14:46;122.15;;;114.18;;
53022;SDS011;38913;44.338;11.206;2023-02-15T13:17:12;124.15;;;116.03;;
53022;SDS011;38913;44.338;11.206;2023-02-15T13:19:45;139.15;;;129.95;;
53022;SDS011;38913;44.338;11.206;2023-02-15T13:22:15;154.75;;;145.38;;
53022;SDS011;38913;44.338;11.206;2023-02-15T13:24:53;164.77;;;154.82;;
53022;SDS011;38913;44.338;11.206;2023-02-15T13:27:20;175.32;;;164.75;;
53022;SDS011;38913;44.338;11.206;2023-02-15T13:29:48;167.45;;;156.95;;
53022;SDS011;38913;44.338;11.206;2023-02-15T13:34:39;219.00;;;206.70;;
53022;SDS011;38913;44.338;11.206;2023-02-15T13:37:08;166.70;;;156.48;;
53022;SDS011;38913;44.338;11.206;2023-02-15T13:42:05;153.83;;;144.13;;
53022;SDS011;38913;44.338;11.206;2023-02-15T13:52:23;115.95;;;107.88;;
53022;SDS011;38913;44.338;11.206;2023-02-15T14:00:21;102.65;;;95.88;;
53022;SDS011;38913;44.338;11.206;2023-02-15T14:07:43;111.77;;;104.70;;
53022;SDS011;38913;44.338;11.206;2023-02-15T14:13:27;103.40;;;96.00;;
53022;SDS011;38913;44.338;11.206;2023-02-15T14:18:39;94.85;;;88.00;;
53022;SDS011;38913;44.338;11.206;2023-02-15T14:21:17;120.72;;;112.80;;
53022;SDS011;38913;44.338;11.206;2023-02-15T14:23:53;101.43;;;94.43;;
53022;SDS011;38913;44.338;11.206;2023-02-15T14:29:02;88.80;;;82.32;;
53022;SDS011;38913;44.338;11.206;2023-02-15T14:31:34;85.53;;;79.15;;
53022;SDS011;38913;44.338;11.206;2023-02-15T14:34:01;92.82;;;86.15;;
53022;SDS011;38913;44.338;11.206;2023-02-15T14:36:26;104.20;;;96.72;;
53022;SDS011;38913;44.338;11.206;2023-02-15T14:41:48;125.68;;;117.35;;
53022;SDS011;38913;44.338;11.206;2023-02-15T14:49:11;118.97;;;110.73;;
53022;SDS011;38913;44.338;11.206;2023-02-15T14:54:08;134.05;;;125.25;;
53022;SDS011;38913;44.338;11.206;2023-02-15T14:56:34;155.52;;;145.50;;
53022;SDS011;38913;44.338;11.206;2023-02-15T15:09:25;121.97;;;113.90;;
53022;SDS011;38913;44.338;11.206;2023-02-15T15:11:52;114.53;;;107.00;;
53022;SDS011;38913;44.338;11.206;2023-02-15T15:16:58;125.63;;;117.28;;
53022;SDS011;38913;44.338;11.206;2023-02-15T15:22:16;118.35;;;110.10;;
53022;SDS011;38913;44.338;11.206;2023-02-15T15:29:51;105.53;;;98.53;;
53022;SDS011;38913;44.338;11.206;2023-02-15T15:32:17;129.15;;;120.35;;
53022;SDS011;38913;44.338;11.206;2023-02-15T15:34:55;136.00;;;127.10;;
53022;SDS011;38913;44.338;11.206;2023-02-15T15:40:01;110.43;;;102.72;;
53022;SDS011;38913;44.338;11.206;2023-02-15T15:45:39;140.68;;;131.52;;
53022;SDS011;38913;44.338;11.206;2023-02-15T15:50:50;121.15;;;113.05;;
53022;SDS011;38913;44.338;11.206;2023-02-15T15:53:22;115.60;;;107.47;;
53022;SDS011;38913;44.338;11.206;2023-02-15T15:55:48;129.82;;;121.20;;
53022;SDS011;38913;44.338;11.206;2023-02-15T15:58:16;132.00;;;122.85;;
53022;SDS011;38913;44.338;11.206;2023-02-15T16:03:47;123.55;;;115.43;;
53022;SDS011;38913;44.338;11.206;2023-02-15T16:06:01;124.72;;;116.72;;
53022;SDS011;38913;44.338;11.206;2023-02-15T16:10:51;133.10;;;124.70;;
53022;SDS011;38913;44.338;11.206;2023-02-15T16:13:16;123.88;;;115.80;;
53022;SDS011;38913;44.338;11.206;2023-02-15T16:15:45;130.27;;;122.60;;
53022;SDS011;38913;44.338;11.206;2023-02-15T16:18:15;123.43;;;115.65;;
53022;SDS011;38913;44.338;11.206;2023-02-15T16:20:41;127.97;;;120.35;;
53022;SDS011;38913;44.338;11.206;2023-02-15T16:25:55;138.55;;;130.85;;
53022;SDS011;38913;44.338;11.206;2023-02-15T16:28:22;141.70;;;133.30;;
53022;SDS011;38913;44.338;11.206;2023-02-15T16:30:54;148.88;;;140.57;;
53022;SDS011;38913;44.338;11.206;2023-02-15T16:33:23;125.72;;;118.43;;
53022;SDS011;38913;44.338;11.206;2023-02-15T16:35:59;127.00;;;119.50;;
53022;SDS011;38913;44.338;11.206;2023-02-15T16:41:08;122.57;;;115.68;;
53022;SDS011;38913;44.338;11.206;2023-02-15T16:43:35;158.07;;;149.15;;
53022;SDS011;38913;44.338;11.206;2023-02-15T16:46:05;152.07;;;143.15;;
53022;SDS011;38913;44.338;11.206;2023-02-15T16:48:31;163.45;;;154.50;;
53022;SDS011;38913;44.338;11.206;2023-02-15T16:50:57;170.65;;;160.43;;
53022;SDS011;38913;44.338;11.206;2023-02-15T16:53:25;150.32;;;139.30;;
53022;SDS011;38913;44.338;11.206;2023-02-15T16:55:52;153.10;;;143.88;;
53022;SDS011;38913;44.338;11.206;2023-02-15T16:58:19;151.68;;;142.20;;
53022;SDS011;38913;44.338;11.206;2023-02-15T17:00:48;166.85;;;157.55;;
53022;SDS011;38913;44.338;11.206;2023-02-15T17:05:45;152.47;;;144.33;;
53022;SDS011;38913;44.338;11.206;2023-02-15T17:08:24;142.35;;;134.48;;
53022;SDS011;38913;44.338;11.206;2023-02-15T17:13:28;147.93;;;139.48;;
53022;SDS011;38913;44.338;11.206;2023-02-15T17:18:25;136.55;;;128.45;;
53022;SDS011;38913;44.338;11.206;2023-02-15T17:20:52;124.90;;;117.75;;
53022;SDS011;38913;44.338;11.206;2023-02-15T17:26:00;142.32;;;134.48;;